createdAt,value
2018-03-03T00:01:00.076Z,44.53
2018-03-03T00:03:28.271Z,44.60
2018-03-03T00:05:57.272Z,45.50
2018-03-03T00:08:26.849Z,45.50
2018-03-03T00:10:55.305Z,45.13
2018-03-03T00:13:23.598Z,41.30
2018-03-03T00:15:51.824Z,44.73
2018-03-03T00:18:21.912Z,43.83
2018-03-03T00:20:50.426Z,45.43
2018-03-03T00:23:19.520Z,45.13
2018-03-03T00:25:48.210Z,42.33
2018-03-03T00:28:16.447Z,46.77
2018-03-03T00:30:45.458Z,43.37
2018-03-03T00:33:13.683Z,47.43
2018-03-03T00:35:41.998Z,44.80
2018-03-03T00:38:10.272Z,45.70
2018-03-03T00:40:38.519Z,46.47
2018-03-03T00:43:06.755Z,48.03
2018-03-03T00:45:34.960Z,42.63
2018-03-03T00:48:03.240Z,43.20
2018-03-03T00:50:31.463Z,44.13
2018-03-03T00:53:00.533Z,48.43
2018-03-03T00:55:28.748Z,44.37
2018-03-03T00:57:57.750Z,44.33
2018-03-03T01:00:26.134Z,45.13
2018-03-03T01:02:54.367Z,43.03
2018-03-03T01:05:22.732Z,43.20
2018-03-03T01:07:50.959Z,44.80
2018-03-03T01:10:19.989Z,44.53
2018-03-03T01:12:48.261Z,43.60
2018-03-03T01:15:16.526Z,43.30
2018-03-03T01:17:44.724Z,45.90
2018-03-03T01:20:13.040Z,45.50
2018-03-03T01:22:42.076Z,45.83
2018-03-03T01:25:10.380Z,44.47
2018-03-03T01:27:38.706Z,44.87
2018-03-03T01:30:06.904Z,44.53
2018-03-03T01:32:35.178Z,48.27
2018-03-03T01:35:03.420Z,47.37
2018-03-03T01:37:32.432Z,46.57
2018-03-03T01:40:00.637Z,45.47
2018-03-03T01:42:28.913Z,47.37
2018-03-03T01:44:57.233Z,47.73
2018-03-03T01:47:26.256Z,49.97
2018-03-03T01:49:54.497Z,47.33
2018-03-03T01:52:23.536Z,46.53
2018-03-03T01:54:52.036Z,47.37
2018-03-03T01:57:20.271Z,48.67
2018-03-03T01:59:48.472Z,45.83
2018-03-03T02:02:16.768Z,46.27
2018-03-03T02:04:46.212Z,45.17
2018-03-03T02:07:15.228Z,47.57
2018-03-03T02:09:43.884Z,47.13
2018-03-03T02:12:12.084Z,45.10
2018-03-03T02:14:40.477Z,47.07
2018-03-03T02:17:08.707Z,47.53
2018-03-03T02:19:36.945Z,46.83
2018-03-03T02:22:05.161Z,48.20
2018-03-03T02:24:34.347Z,48.13
2018-03-03T02:27:02.768Z,47.37
2018-03-03T02:29:31.014Z,46.53
2018-03-03T02:32:00.021Z,47.40
2018-03-03T02:34:29.021Z,48.10
2018-03-03T02:36:57.222Z,48.27
2018-03-03T02:39:25.462Z,47.87
2018-03-03T02:41:54.480Z,49.43
2018-03-03T02:44:22.784Z,48.23
2018-03-03T02:46:51.020Z,47.03
2018-03-03T02:49:19.272Z,48.07
2018-03-03T02:51:47.478Z,49.00
2018-03-03T02:54:15.710Z,47.07
2018-03-03T02:56:44.028Z,45.50
2018-03-03T02:59:12.222Z,46.93
2018-03-03T03:01:40.559Z,51.40
2018-03-03T03:04:08.858Z,49.03
2018-03-03T03:06:37.129Z,50.17
2018-03-03T03:09:06.100Z,48.53
2018-03-03T03:11:35.252Z,49.93
2018-03-03T03:14:03.484Z,54.27
2018-03-03T03:16:32.460Z,52.87
2018-03-03T03:19:00.777Z,50.97
2018-03-03T03:21:29.041Z,49.97
2018-03-03T03:23:57.253Z,53.90
2018-03-03T03:26:26.909Z,54.90
2018-03-03T03:28:55.889Z,53.80
2018-03-03T03:31:24.125Z,54.70
2018-03-03T03:33:53.752Z,54.87
2018-03-03T03:36:21.960Z,51.57
2018-03-03T03:38:51.003Z,53.37
2018-03-03T03:41:19.357Z,55.03
2018-03-03T03:43:47.588Z,57.47
2018-03-03T03:46:15.892Z,54.07
2018-03-03T03:48:44.892Z,60.70
2018-03-03T03:51:13.853Z,54.23
2018-03-03T03:53:42.169Z,56.77
2018-03-03T03:56:10.586Z,56.73
2018-03-03T03:58:38.791Z,59.37
2018-03-03T04:01:07.005Z,54.60
2018-03-03T04:03:35.224Z,52.90
2018-03-03T04:06:03.432Z,59.23
2018-03-03T04:08:32.401Z,57.07
2018-03-03T04:11:00.632Z,60.90
2018-03-03T04:13:28.856Z,56.67
2018-03-03T04:15:57.120Z,59.60
2018-03-03T04:18:25.390Z,55.27
2018-03-03T04:20:53.813Z,53.60
2018-03-03T04:23:22.018Z,51.63
2018-03-03T04:25:50.345Z,57.27
2018-03-03T04:28:21.232Z,55.00
2018-03-03T04:30:49.480Z,57.43
2018-03-03T04:33:17.777Z,59.30
2018-03-03T04:35:45.981Z,55.17
2018-03-03T04:38:14.204Z,57.83
2018-03-03T04:40:43.311Z,60.83
2018-03-03T04:43:12.299Z,55.93
2018-03-03T04:45:41.260Z,51.73
2018-03-03T04:48:09.542Z,54.43
2018-03-03T04:50:37.784Z,54.27
2018-03-03T04:53:06.065Z,54.27
2018-03-03T04:55:34.286Z,55.03
2018-03-03T04:58:03.276Z,57.30
2018-03-03T05:00:49.124Z,55.23
2018-03-03T05:03:34.049Z,55.57
2018-03-03T05:06:10.898Z,52.80
2018-03-03T05:08:39.979Z,58.77
2018-03-03T05:11:08.164Z,58.87
2018-03-03T05:13:47.223Z,53.27
2018-03-03T05:16:22.086Z,56.70
2018-03-03T05:18:55.921Z,54.87
2018-03-03T05:21:30.032Z,60.87
2018-03-03T05:24:03.888Z,59.77
2018-03-03T05:26:37.748Z,58.90
2018-03-03T05:29:12.539Z,62.53
2018-03-03T05:31:47.240Z,62.87
2018-03-03T05:34:21.226Z,64.87
2018-03-03T05:36:55.092Z,61.47
2018-03-03T05:39:40.212Z,56.50
2018-03-03T05:42:14.961Z,63.60
2018-03-03T05:44:48.844Z,56.87
2018-03-03T05:47:36.522Z,54.83
2018-03-03T05:50:21.519Z,60.20
2018-03-03T05:53:10.401Z,54.17
2018-03-03T05:55:57.477Z,59.53
2018-03-03T05:58:42.502Z,58.83
2018-03-03T06:01:26.437Z,59.97
2018-03-03T06:04:11.312Z,57.33
2018-03-03T06:06:55.368Z,54.17
2018-03-03T06:09:28.844Z,55.00
2018-03-03T06:11:57.305Z,54.50
2018-03-03T06:14:26.180Z,52.33
2018-03-03T06:16:54.663Z,56.33
2018-03-03T06:19:22.837Z,53.27
2018-03-03T06:21:51.165Z,54.57
2018-03-03T06:24:19.468Z,53.97
2018-03-03T06:26:47.839Z,51.90
2018-03-03T06:29:16.060Z,53.73
2018-03-03T06:31:44.340Z,52.30
2018-03-03T06:34:12.620Z,55.73
2018-03-03T06:36:40.835Z,53.27
2018-03-03T06:39:09.110Z,50.67
2018-03-03T06:41:37.332Z,57.13
2018-03-03T06:44:05.528Z,54.00
2018-03-03T06:46:33.804Z,51.93
2018-03-03T06:49:02.056Z,51.70
2018-03-03T06:51:30.283Z,51.77
2018-03-03T06:53:59.236Z,55.07
2018-03-03T06:56:27.528Z,53.33
2018-03-03T06:58:55.802Z,54.97
2018-03-03T07:01:24.028Z,55.07
2018-03-03T07:03:52.380Z,50.80
2018-03-03T07:06:21.385Z,51.57
2018-03-03T07:08:49.556Z,49.67
2018-03-03T07:11:17.898Z,52.20
2018-03-03T07:13:46.139Z,53.40
2018-03-03T07:16:14.340Z,54.37
2018-03-03T07:18:42.741Z,54.67
2018-03-03T07:21:11.768Z,50.37
2018-03-03T07:23:40.236Z,50.97
2018-03-03T07:26:08.501Z,52.57
2018-03-03T07:28:37.612Z,52.63
2018-03-03T07:31:05.867Z,50.70
2018-03-03T07:33:34.204Z,50.20
2018-03-03T07:36:02.431Z,53.17
2018-03-03T07:38:30.648Z,53.50
2018-03-03T07:40:59.002Z,50.23
2018-03-03T07:43:27.768Z,49.87
2018-03-03T07:45:57.076Z,51.23
2018-03-03T07:48:25.396Z,50.63
2018-03-03T07:50:53.620Z,52.63
2018-03-03T07:53:22.050Z,54.00
2018-03-03T07:55:50.455Z,52.73
2018-03-03T07:58:30.376Z,49.30
2018-03-03T08:00:58.624Z,51.33
2018-03-03T08:03:26.824Z,50.83
2018-03-03T08:05:55.160Z,55.97
2018-03-03T08:08:24.171Z,53.07
2018-03-03T08:10:52.383Z,51.60
2018-03-03T08:13:20.596Z,50.50
2018-03-03T08:15:49.653Z,54.70
2018-03-03T08:18:18.435Z,51.60
2018-03-03T08:20:46.748Z,53.53
2018-03-03T08:23:15.807Z,51.53
2018-03-03T08:25:44.045Z,54.03
2018-03-03T08:28:12.326Z,52.50
2018-03-03T08:30:40.564Z,50.57
2018-03-03T08:33:08.805Z,50.17
2018-03-03T08:35:37.064Z,50.00
2018-03-03T08:38:05.336Z,50.93
2018-03-03T08:40:33.548Z,52.53
2018-03-03T08:43:01.745Z,50.97
2018-03-03T08:45:30.794Z,51.20
2018-03-03T08:47:58.992Z,52.90
2018-03-03T08:50:27.200Z,54.20
2018-03-03T08:52:56.460Z,53.63
2018-03-03T08:55:24.704Z,53.40
2018-03-03T08:57:52.916Z,50.03
2018-03-03T09:00:21.188Z,51.77
2018-03-03T09:02:49.392Z,50.37
2018-03-03T09:05:18.622Z,49.83
2018-03-03T09:07:47.053Z,52.30
2018-03-03T09:10:16.080Z,50.77
2018-03-03T09:12:44.308Z,50.20
2018-03-03T09:15:12.576Z,51.73
2018-03-03T09:17:40.776Z,53.73
2018-03-03T09:20:08.976Z,51.67
2018-03-03T09:22:37.232Z,52.50
2018-03-03T09:25:05.440Z,52.63
2018-03-03T09:27:33.661Z,55.63
2018-03-03T09:30:01.958Z,54.37
2018-03-03T09:32:30.164Z,54.30
2018-03-03T09:34:59.229Z,51.53
2018-03-03T09:37:27.553Z,51.77
2018-03-03T09:39:55.887Z,52.57
2018-03-03T09:42:24.093Z,55.00
2018-03-03T09:44:52.424Z,54.00
2018-03-03T09:47:20.667Z,54.23
2018-03-03T09:49:48.921Z,52.77
2018-03-03T09:52:18.174Z,54.07
2018-03-03T09:54:46.562Z,52.40
2018-03-03T09:57:14.773Z,52.17
2018-03-03T09:59:43.149Z,55.60
2018-03-03T10:02:12.100Z,54.77
2018-03-03T10:04:40.300Z,54.90
2018-03-03T10:07:08.575Z,55.70
2018-03-03T10:09:36.769Z,52.67
2018-03-03T10:12:05.742Z,53.67
2018-03-03T10:14:33.988Z,55.43
2018-03-03T10:17:02.281Z,54.50
2018-03-03T10:19:30.485Z,55.87
2018-03-03T10:21:59.524Z,54.37
2018-03-03T10:24:28.497Z,53.03
2018-03-03T10:26:56.695Z,53.90
2018-03-03T10:29:24.977Z,56.67
2018-03-03T10:31:53.171Z,56.83
2018-03-03T10:34:22.251Z,56.40
2018-03-03T10:36:50.525Z,54.97
2018-03-03T10:39:18.727Z,53.47
2018-03-03T10:41:46.977Z,55.83
2018-03-03T10:44:15.244Z,56.13
2018-03-03T10:46:43.657Z,56.40
2018-03-03T10:49:11.856Z,55.73
2018-03-03T10:51:40.917Z,54.43
2018-03-03T10:54:09.090Z,52.80
2018-03-03T10:56:37.285Z,55.33
2018-03-03T10:59:06.394Z,57.83
2018-03-03T11:01:35.435Z,56.50
2018-03-03T11:04:03.700Z,58.13
2018-03-03T11:06:32.653Z,55.03
2018-03-03T11:09:01.609Z,56.53
2018-03-03T11:11:29.815Z,59.57
2018-03-03T11:13:58.093Z,53.37
2018-03-03T11:16:27.098Z,53.60
2018-03-03T11:18:56.056Z,54.27
2018-03-03T11:21:24.291Z,56.87
2018-03-03T11:23:52.513Z,51.90
2018-03-03T11:26:20.726Z,54.60
2018-03-03T11:28:49.035Z,54.40
2018-03-03T11:31:18.448Z,51.00
2018-03-03T11:33:46.673Z,53.50
2018-03-03T11:36:15.704Z,54.07
2018-03-03T11:38:43.908Z,54.63
2018-03-03T11:41:12.117Z,53.67
2018-03-03T11:43:41.107Z,51.93
2018-03-03T11:46:10.097Z,53.07
2018-03-03T11:48:39.075Z,53.90
2018-03-03T11:51:07.299Z,54.67
2018-03-03T11:53:35.494Z,54.90
2018-03-03T11:56:03.698Z,52.60
2018-03-03T11:58:31.975Z,55.43
2018-03-03T12:01:00.170Z,54.20
2018-03-03T12:03:29.142Z,52.43
2018-03-03T12:05:57.353Z,55.40
2018-03-03T12:08:25.558Z,53.17
2018-03-03T12:10:53.763Z,55.50
2018-03-03T12:13:21.984Z,52.13
2018-03-03T12:15:50.388Z,51.97
2018-03-03T12:18:18.616Z,53.67
2018-03-03T12:20:47.631Z,51.03
2018-03-03T12:23:15.829Z,52.87
2018-03-03T12:25:44.020Z,53.33
2018-03-03T12:28:12.280Z,53.90
2018-03-03T12:30:40.468Z,53.53
2018-03-03T12:33:08.856Z,54.53
2018-03-03T12:35:37.134Z,52.57
2018-03-03T12:38:05.299Z,50.23
2018-03-03T12:40:33.492Z,55.53
2018-03-03T12:43:03.743Z,54.30
2018-03-03T12:45:32.052Z,53.80
2018-03-03T12:48:00.312Z,51.80
2018-03-03T12:50:28.581Z,49.03
2018-03-03T12:52:56.832Z,53.43
2018-03-03T12:55:25.838Z,53.70
2018-03-03T12:57:54.137Z,49.97
2018-03-03T13:00:22.360Z,49.83
2018-03-03T13:02:50.600Z,51.73
2018-03-03T13:05:18.903Z,49.43
2018-03-03T13:07:47.115Z,50.93
2018-03-03T13:12:43.207Z,52.77
2018-03-03T13:15:11.397Z,50.13
2018-03-03T13:17:39.604Z,51.67
2018-03-03T13:20:09.274Z,51.27
2018-03-03T13:22:37.496Z,50.10
2018-03-03T13:25:06.488Z,48.53
2018-03-03T13:27:34.812Z,48.13
2018-03-03T13:30:02.980Z,51.10
2018-03-03T13:32:31.178Z,51.30
2018-03-03T13:34:59.456Z,48.30
2018-03-03T13:37:27.663Z,48.67
2018-03-03T13:39:56.694Z,49.63
2018-03-03T13:42:24.923Z,49.30
2018-03-03T13:44:53.925Z,51.10
2018-03-03T13:47:22.121Z,48.33
2018-03-03T13:49:50.365Z,48.20
2018-03-03T13:52:19.358Z,49.13
2018-03-03T13:54:48.313Z,47.57
2018-03-03T13:57:16.536Z,51.40
2018-03-03T13:59:45.128Z,48.50
2018-03-03T14:02:13.384Z,48.07
2018-03-03T14:04:42.380Z,48.93
2018-03-03T14:07:11.352Z,48.67
2018-03-03T14:09:39.552Z,47.03
2018-03-03T14:12:08.591Z,51.13
2018-03-03T14:14:36.896Z,50.37
2018-03-03T14:17:05.408Z,47.80
2018-03-03T14:19:34.432Z,50.17
2018-03-03T14:22:02.696Z,50.67
2018-03-03T14:24:30.948Z,48.90
2018-03-03T14:26:59.932Z,47.43
2018-03-03T14:29:29.417Z,49.33
2018-03-03T14:31:57.756Z,49.60
2018-03-03T14:34:26.317Z,49.73
2018-03-03T14:36:54.494Z,48.77
2018-03-03T14:39:22.691Z,45.70
2018-03-03T14:41:50.934Z,46.37
2018-03-03T14:44:19.952Z,45.60
2018-03-03T14:46:48.194Z,44.37
2018-03-03T14:49:17.176Z,46.60
2018-03-03T14:51:45.435Z,47.17
2018-03-03T14:54:13.657Z,48.30
2018-03-03T14:56:41.909Z,45.13
2018-03-03T14:59:10.911Z,44.83
2018-03-03T15:01:39.916Z,46.27
2018-03-03T15:04:08.138Z,46.97
2018-03-03T15:06:36.355Z,46.87
2018-03-03T15:09:05.348Z,46.33
2018-03-03T15:11:33.699Z,46.17
2018-03-03T15:14:01.898Z,46.40
2018-03-03T15:16:30.857Z,46.37
2018-03-03T15:18:59.167Z,44.47
2018-03-03T15:21:28.166Z,46.17
2018-03-03T15:23:57.148Z,43.27
2018-03-03T15:26:26.137Z,45.70
2018-03-03T15:28:55.173Z,44.47
2018-03-03T15:31:23.376Z,46.43
2018-03-03T15:33:51.602Z,46.80
2018-03-03T15:36:19.863Z,44.80
2018-03-03T15:38:48.100Z,44.20
2018-03-03T15:41:17.627Z,47.03
2018-03-03T15:43:45.827Z,48.10
2018-03-03T15:46:14.793Z,44.33
2018-03-03T15:48:43.028Z,44.70
2018-03-03T15:51:11.240Z,47.87
2018-03-03T15:53:39.452Z,49.03
2018-03-03T15:56:08.727Z,50.97
2018-03-03T15:58:36.971Z,46.93
2018-03-03T16:01:05.208Z,46.10
2018-03-03T16:03:34.241Z,48.17
2018-03-03T16:06:02.485Z,46.30
2018-03-03T16:08:31.449Z,47.27
2018-03-03T16:10:59.699Z,45.70
2018-03-03T16:13:27.930Z,47.83
2018-03-03T16:15:56.945Z,46.77
2018-03-03T16:18:25.173Z,46.30
2018-03-03T16:20:53.434Z,45.13
2018-03-03T16:23:21.637Z,46.70
2018-03-03T16:25:50.820Z,46.40
2018-03-03T16:28:19.028Z,48.00
2018-03-03T16:30:47.479Z,48.03
2018-03-03T16:33:15.734Z,45.03
2018-03-03T16:35:43.933Z,44.10
2018-03-03T16:38:12.937Z,49.53
2018-03-03T16:40:41.991Z,48.03
2018-03-03T16:43:10.200Z,48.07
2018-03-03T16:45:39.165Z,49.87
2018-03-03T16:48:08.053Z,48.13
2018-03-03T16:50:36.249Z,48.93
2018-03-03T16:53:04.452Z,48.73
2018-03-03T16:55:32.700Z,51.77
2018-03-03T16:58:00.894Z,50.83
2018-03-03T17:00:29.879Z,53.87
2018-03-03T17:02:58.860Z,48.17
2018-03-03T17:05:27.052Z,50.80
2018-03-03T17:07:56.387Z,54.60
2018-03-03T17:10:24.705Z,56.77
2018-03-03T17:12:52.953Z,50.27
2018-03-03T17:15:21.196Z,57.73
2018-03-03T17:17:49.443Z,53.20
2018-03-03T17:20:18.491Z,55.47
2018-03-03T17:22:47.440Z,52.40
2018-03-03T17:25:16.423Z,55.67
2018-03-03T17:27:45.392Z,53.07
2018-03-03T17:30:13.626Z,56.23
2018-03-03T17:32:42.171Z,57.10
2018-03-03T17:35:10.373Z,57.47
2018-03-03T17:37:38.625Z,53.30
2018-03-03T17:40:07.017Z,55.57
2018-03-03T17:42:36.002Z,57.50
2018-03-03T17:45:05.037Z,57.07
2018-03-03T17:47:33.201Z,55.53
2018-03-03T17:50:01.393Z,58.13
2018-03-03T17:52:29.608Z,52.93
2018-03-03T17:54:59.185Z,55.30
2018-03-03T17:57:27.412Z,54.27
2018-03-03T17:59:55.730Z,54.43
2018-03-03T18:02:24.117Z,56.67
2018-03-03T18:04:52.349Z,56.17
2018-03-03T18:07:21.320Z,57.47
2018-03-03T18:09:49.552Z,57.93
2018-03-03T18:12:17.849Z,55.23
2018-03-03T18:14:46.064Z,57.00
2018-03-03T18:17:15.108Z,60.27
2018-03-03T18:19:43.348Z,56.07
2018-03-03T18:22:11.565Z,52.63
2018-03-03T18:24:39.798Z,56.83
2018-03-03T18:27:08.030Z,59.17
2018-03-03T18:29:36.247Z,60.67
2018-03-03T18:32:04.496Z,60.33
2018-03-03T18:34:33.460Z,57.90
2018-03-03T18:37:01.657Z,60.70
2018-03-03T18:39:29.899Z,57.93
2018-03-03T18:41:59.488Z,56.37
2018-03-03T18:44:27.721Z,56.90
2018-03-03T18:46:56.039Z,54.57
2018-03-03T18:49:24.340Z,55.50
2018-03-03T18:51:52.533Z,56.23
2018-03-03T18:54:20.779Z,52.23
2018-03-03T18:56:48.969Z,55.97
2018-03-03T18:59:17.232Z,58.90
2018-03-03T19:01:45.504Z,55.93
2018-03-03T19:04:13.707Z,57.40
2018-03-03T19:06:41.926Z,57.57
2018-03-03T19:09:10.167Z,55.60
2018-03-03T19:11:38.405Z,55.57
2018-03-03T19:14:06.615Z,54.20
2018-03-03T19:16:34.863Z,58.03
2018-03-03T19:19:03.817Z,59.83
2018-03-03T19:21:32.026Z,53.83
2018-03-03T19:24:00.347Z,56.60
2018-03-03T19:26:28.555Z,56.10
2018-03-03T19:28:57.514Z,58.10
2018-03-03T19:31:26.521Z,60.03
2018-03-03T19:33:55.615Z,60.97
2018-03-03T19:36:25.270Z,53.20
2018-03-03T19:38:53.481Z,53.53
2018-03-03T19:41:21.701Z,57.30
2018-03-03T19:43:49.917Z,57.07
2018-03-03T19:46:18.201Z,57.20
2018-03-03T19:48:46.444Z,54.57
2018-03-03T19:51:14.724Z,53.03
2018-03-03T19:53:44.154Z,53.17
2018-03-03T19:56:12.389Z,54.20
2018-03-03T19:58:40.568Z,52.70
2018-03-03T20:01:08.818Z,52.03
2018-03-03T20:03:37.032Z,57.97
2018-03-03T20:06:05.247Z,54.27
2018-03-03T20:08:33.476Z,54.27
2018-03-03T20:11:01.717Z,52.13
2018-03-03T20:13:30.674Z,50.60
2018-03-03T20:15:58.955Z,51.77
2018-03-03T20:18:27.140Z,52.53
2018-03-03T20:20:55.342Z,51.77
2018-03-03T20:23:23.629Z,52.50
2018-03-03T20:25:52.619Z,51.87
2018-03-03T20:28:20.909Z,52.60
2018-03-03T20:30:49.164Z,49.70
2018-03-03T20:33:17.514Z,52.43
2018-03-03T20:35:46.617Z,49.17
2018-03-03T20:38:15.654Z,50.37
2018-03-03T20:40:43.881Z,50.17
2018-03-03T20:43:12.895Z,50.00
2018-03-03T20:45:41.120Z,48.50
2018-03-03T20:48:09.399Z,50.70
2018-03-03T20:50:37.581Z,50.10
2018-03-03T20:53:07.148Z,48.70
2018-03-03T20:55:35.392Z,51.17
2018-03-03T20:58:04.384Z,50.30
2018-03-03T21:00:33.425Z,48.20
2018-03-03T21:03:01.661Z,46.57
2018-03-03T21:05:30.013Z,51.80
2018-03-03T21:07:58.365Z,50.30
2018-03-03T21:10:26.691Z,49.43
2018-03-03T21:12:55.685Z,50.20
2018-03-03T21:15:24.798Z,48.10
2018-03-03T21:17:53.081Z,47.30
2018-03-03T21:20:21.290Z,48.83
2018-03-03T21:22:49.590Z,50.43
2018-03-03T21:25:17.840Z,49.13
2018-03-03T21:27:46.048Z,52.07
2018-03-03T21:30:15.049Z,48.67
2018-03-03T21:32:44.041Z,49.33
2018-03-03T21:35:13.041Z,48.93
2018-03-03T21:37:42.223Z,48.67
2018-03-03T21:40:11.420Z,48.43
2018-03-03T21:42:39.678Z,47.53
2018-03-03T21:45:08.031Z,48.23
2018-03-03T21:47:36.277Z,47.67
2018-03-03T21:50:04.507Z,49.70
2018-03-03T21:52:32.732Z,48.03
2018-03-03T21:55:00.954Z,48.03
2018-03-03T21:57:29.165Z,48.50
2018-03-03T21:59:58.193Z,50.83
2018-03-03T22:02:26.415Z,48.27
2018-03-03T22:04:54.646Z,51.30
2018-03-03T22:07:22.853Z,49.20
2018-03-03T22:09:51.142Z,49.70
2018-03-03T22:12:19.340Z,49.73
2018-03-03T22:14:47.608Z,49.57
2018-03-03T22:17:16.585Z,47.63
2018-03-03T22:19:44.912Z,49.17
2018-03-03T22:22:13.197Z,47.13
2018-03-03T22:24:41.410Z,46.67
2018-03-03T22:27:09.635Z,47.60
2018-03-03T22:29:37.976Z,46.30
2018-03-03T22:32:07.050Z,47.77
2018-03-03T22:34:35.330Z,48.13
2018-03-03T22:37:03.586Z,47.90
2018-03-03T22:39:31.840Z,48.40
2018-03-03T22:42:00.058Z,45.67
2018-03-03T22:44:30.713Z,45.43
2018-03-03T22:46:59.773Z,45.63
2018-03-03T22:49:28.078Z,44.57
2018-03-03T22:51:56.449Z,46.77
2018-03-03T22:54:24.925Z,46.53
2018-03-03T22:56:53.217Z,47.20
2018-03-03T22:59:22.216Z,47.80
2018-03-03T23:01:51.187Z,46.13
2018-03-03T23:04:19.412Z,47.30
2018-03-03T23:06:47.788Z,47.03
2018-03-03T23:09:16.020Z,46.67
2018-03-03T23:11:44.207Z,46.27
2018-03-03T23:14:12.913Z,44.33
2018-03-03T23:16:41.426Z,44.57
2018-03-03T23:19:09.645Z,46.17
2018-03-03T23:21:38.797Z,46.17
2018-03-03T23:24:07.092Z,45.47
2018-03-03T23:26:35.332Z,44.17
2018-03-03T23:29:05.317Z,46.37
2018-03-03T23:31:34.284Z,45.60
2018-03-03T23:34:02.526Z,43.13
2018-03-03T23:36:30.808Z,46.03
2018-03-03T23:38:59.009Z,44.40
2018-03-03T23:41:27.268Z,45.13
2018-03-03T23:43:55.527Z,44.53
2018-03-03T23:46:23.823Z,44.00
2018-03-03T23:48:52.191Z,45.90
2018-03-03T23:51:20.436Z,46.00
2018-03-03T23:53:48.698Z,43.57
2018-03-03T23:56:17.664Z,41.07
2018-03-03T23:58:45.910Z,43.07
